Time;durP1;ratioP1;P1;durP2;ratioP2;P2;SDS_P1;SDS_P2;PMS_P1;PMS_P2;Temp;Humidity;BMP_temperature;BMP_pressure;BME280_temperature;BME280_humidity;BME280_pressure;Samples;Min_cycle;Max_cycle;Signal;HPM_P1;HPM_P2
2023/07/29 00:01:42;;;;;;;;;6.50;6.50;;;;;22.15;94.44;100511.97;5005789;28;46132;-66
2023/07/29 00:04:11;;;;;;;;;6.75;6.75;;;;;22.31;94.21;100527.00;5002639;28;45575;-66
2023/07/29 00:06:36;;;;;;;;;9.50;8.00;;;;;22.14;94.50;100498.50;5000294;28;45258;-66
2023/07/29 00:09:02;;;;;;;;;8.00;7.25;;;;;22.29;94.09;100531.72;4999773;28;45533;-66
2023/07/29 00:11:27;;;;;;;;;6.25;5.75;;;;;22.21;93.94;100506.00;4998573;28;48299;-66
2023/07/29 00:13:53;;;;;;;;;7.75;6.25;;;;;22.24;94.05;100513.03;4998501;28;45404;-66
2023/07/29 00:16:21;;;;;;;;;7.50;6.25;;;;;22.06;93.59;100477.41;4997473;28;45463;-66
2023/07/29 00:18:47;;;;;;;;;5.50;5.50;;;;;22.11;93.40;100479.72;4981802;28;45496;-66
2023/07/29 00:21:12;;;;;;;;;8.00;6.00;;;;;22.05;93.76;100469.38;4999937;28;45612;-66
2023/07/29 00:23:38;;;;;;;;;6.00;6.00;;;;;22.06;93.82;100474.69;4999337;28;45385;-66
2023/07/29 00:26:03;;;;;;;;;6.25;6.25;;;;;22.19;93.61;100488.09;4998568;28;45276;-66
2023/07/29 00:28:29;;;;;;;;;6.50;6.00;;;;;22.12;93.61;100482.31;5003903;28;45323;-66
2023/07/29 00:30:54;;;;;;;;;4.75;4.75;;;;;22.02;93.30;100468.66;5008572;28;46562;-66
2023/07/29 00:33:20;;;;;;;;;7.00;5.50;;;;;21.99;93.04;100471.63;4999576;28;45287;-66
2023/07/29 00:35:46;;;;;;;;;4.75;4.75;;;;;22.13;92.83;100496.75;4982008;28;45369;-66
2023/07/29 00:38:11;;;;;;;;;5.75;5.25;;;;;22.08;92.92;100491.72;4981773;28;45331;-66
2023/07/29 00:40:37;;;;;;;;;5.00;4.50;;;;;21.98;92.50;100474.47;4998167;28;47966;-66
2023/07/29 00:43:03;;;;;;;;;10.00;6.25;;;;;22.09;92.59;100504.31;4999433;28;45255;-66
2023/07/29 00:45:30;;;;;;;;;6.00;4.75;;;;;21.95;92.53;100489.19;4999334;28;45441;-66
2023/07/29 00:47:55;;;;;;;;;0.50;0.50;;;;;22.08;92.44;100513.47;4997499;28;45944;-66
2023/07/29 00:50:21;;;;;;;;;3.00;3.00;;;;;21.95;91.95;100491.91;4999383;28;45476;-66
2023/07/29 00:52:48;;;;;;;;;2.00;2.00;;;;;21.94;91.85;100492.03;4981686;28;45719;-66
2023/07/29 00:55:14;;;;;;;;;3.00;3.00;;;;;21.82;91.68;100474.91;4999405;28;45389;-66
2023/07/29 00:57:40;;;;;;;;;2.25;2.25;;;;;21.78;91.67;100481.59;4999336;28;45308;-66
2023/07/29 01:00:06;;;;;;;;;3.00;3.00;;;;;21.80;91.75;100491.34;4981555;28;46876;-66
2023/07/29 01:02:32;;;;;;;;;2.00;2.00;;;;;21.91;91.41;100517.59;5007359;28;45427;-66
2023/07/29 01:04:59;;;;;;;;;3.00;2.00;;;;;21.85;91.55;100509.94;4999350;28;45250;-66
2023/07/29 01:07:36;;;;;;;;;2.00;2.00;;;;;21.89;91.42;100525.03;4999155;28;45400;-66
2023/07/29 01:10:10;;;;;;;;;4.00;1.75;;;;;21.87;90.75;100521.59;4998937;28;45463;-66
2023/07/29 01:12:56;;;;;;;;;1.25;1.25;;;;;21.83;90.80;100522.81;4997849;28;45599;-66
2023/07/29 01:15:24;;;;;;;;;1.25;1.25;;;;;21.78;90.12;100517.75;4994982;28;45733;-66
2023/07/29 01:17:54;;;;;;;;;2.00;2.00;;;;;21.51;89.83;100468.47;4999092;28;45617;-66
2023/07/29 01:20:20;;;;;;;;;2.50;2.50;;;;;21.52;89.84;100460.19;4998926;28;46388;-66
2023/07/29 01:22:46;;;;;;;;;2.00;2.00;;;;;21.62;90.20;100501.03;4981239;28;45565;-66
2023/07/29 01:25:13;;;;;;;;;1.00;1.00;;;;;21.40;89.58;100461.16;4998935;28;45397;-66
2023/07/29 01:27:38;;;;;;;;;1.25;1.25;;;;;21.57;89.27;100484.25;5001428;28;45437;-66
2023/07/29 01:30:05;;;;;;;;;0.25;0.25;;;;;21.38;89.51;100463.13;5001679;28;48115;-66
2023/07/29 01:32:42;;;;;;;;;1.00;1.00;;;;;21.50;89.79;100494.75;5022183;28;46754;-66
2023/07/29 01:35:26;;;;;;;;;2.00;2.00;;;;;21.42;88.99;100498.06;4985508;28;45692;-66
2023/07/29 01:38:05;;;;;;;;;0.75;0.75;;;;;21.40;89.40;100491.91;5001088;28;45562;-66
2023/07/29 01:40:31;;;;;;;;;2.00;2.00;;;;;21.45;89.08;100486.94;5002229;28;46372;-66
2023/07/29 01:42:57;;;;;;;;;2.25;1.00;;;;;21.41;89.34;100487.31;5002256;28;45568;-66
2023/07/29 01:45:25;;;;;;;;;3.25;2.00;;;;;21.26;89.50;100478.56;5000680;28;45515;-65
2023/07/29 01:47:51;;;;;;;;;1.75;1.75;;;;;21.24;88.92;100457.00;5000781;28;45476;-66
2023/07/29 01:50:16;;;;;;;;;1.75;1.00;;;;;21.19;89.63;100458.38;5000862;28;46337;-66
2023/07/29 01:52:41;;;;;;;;;2.50;1.50;;;;;21.14;89.34;100466.88;5002049;28;45478;-66
2023/07/29 01:55:07;;;;;;;;;1.00;1.00;;;;;21.24;89.20;100491.41;5000831;28;45370;-65
2023/07/29 01:57:33;;;;;;;;;2.00;2.00;;;;;21.12;89.15;100490.56;5002225;28;45345;-66
2023/07/29 01:59:58;;;;;;;;;2.00;2.00;;;;;21.05;89.68;100483.91;5000750;28;46531;-66
2023/07/29 02:02:24;;;;;;;;;3.00;3.00;;;;;21.16;89.62;100513.75;5009940;28;45464;-66
2023/07/29 02:04:51;;;;;;;;;2.00;2.00;;;;;21.21;89.10;100526.94;5002118;28;45619;-66
2023/07/29 02:07:18;;;;;;;;;1.00;1.00;;;;;21.13;88.86;100524.00;5000835;28;45623;-66
2023/07/29 02:09:43;;;;;;;;;2.25;2.25;;;;;21.00;88.87;100507.81;5001675;28;46145;-66
2023/07/29 02:12:08;;;;;;;;;1.25;1.25;;;;;21.12;89.45;100538.53;5001749;28;45326;-66
2023/07/29 02:14:34;;;;;;;;;1.00;1.00;;;;;20.89;89.17;100474.28;5000716;28;45381;-66
2023/07/29 02:16:59;;;;;;;;;1.50;1.50;;;;;20.94;88.73;100438.63;5001621;28;45467;-66
2023/07/29 02:19:24;;;;;;;;;1.25;1.00;;;;;20.91;89.00;100469.59;5001871;28;46585;-66
2023/07/29 02:21:50;;;;;;;;;1.00;1.00;;;;;20.98;88.70;100485.38;4983867;28;45688;-66
2023/07/29 02:24:15;;;;;;;;;2.00;2.00;;;;;20.92;88.85;100470.47;5000253;28;45312;-66
2023/07/29 02:26:41;;;;;;;;;1.00;1.00;;;;;21.08;89.43;100502.63;4983872;28;45428;-66
2023/07/29 02:29:07;;;;;;;;;2.50;2.50;;;;;21.08;89.00;100499.91;5011144;28;46499;-66
2023/07/29 02:31:34;;;;;;;;;1.00;1.00;;;;;21.08;89.03;100492.66;5000078;28;45298;-66
2023/07/29 02:33:59;;;;;;;;;1.00;1.00;;;;;21.04;88.33;100503.88;5001577;28;45404;-66
2023/07/29 02:36:25;;;;;;;;;1.00;1.00;;;;;21.04;88.91;100510.16;4983563;28;45388;-66
2023/07/29 02:38:50;;;;;;;;;1.00;1.00;;;;;20.85;89.15;100488.22;4999001;28;48165;-66
2023/07/29 02:41:15;;;;;;;;;2.25;2.25;;;;;21.00;88.49;100524.97;5001358;28;45472;-66
2023/07/29 02:43:42;;;;;;;;;2.00;1.00;;;;;20.94;88.58;100513.75;5001554;28;45396;-66
2023/07/29 02:46:08;;;;;;;;;0.75;0.75;;;;;20.88;88.66;100507.84;4983500;28;45589;-66
2023/07/29 02:48:33;;;;;;;;;1.75;1.75;;;;;20.75;88.53;100482.66;5001170;28;45448;-66
2023/07/29 02:50:59;;;;;;;;;1.00;1.00;;;;;20.72;88.99;100472.91;5001253;28;45394;-66
2023/07/29 02:53:24;;;;;;;;;0.50;0.50;;;;;20.66;88.17;100476.09;5001163;28;45243;-66
2023/07/29 02:55:50;;;;;;;;;0.50;0.50;;;;;20.80;88.30;100502.16;5000161;28;45561;-66
2023/07/29 02:58:15;;;;;;;;;1.00;1.00;;;;;20.62;89.04;100482.72;4999889;28;47146;-66
2023/07/29 03:00:41;;;;;;;;;1.00;1.00;;;;;20.83;88.27;100522.72;5001160;28;45436;-66
2023/07/29 03:03:08;;;;;;;;;2.75;2.00;;;;;20.63;88.39;100478.19;4992132;28;45504;-66
2023/07/29 03:05:33;;;;;;;;;2.00;2.00;;;;;20.81;88.48;100517.41;5001020;28;45405;-66
2023/07/29 03:07:59;;;;;;;;;1.00;1.00;;;;;20.61;88.48;100482.84;5000974;28;46021;-66
2023/07/29 03:10:25;;;;;;;;;2.00;2.00;;;;;20.66;88.97;100496.94;4983044;28;45380;-66
2023/07/29 03:12:50;;;;;;;;;1.00;1.00;;;;;20.77;88.48;100518.66;4999700;28;45472;-66
2023/07/29 03:15:16;;;;;;;;;1.00;1.00;;;;;20.76;88.51;100519.63;4999826;28;45577;-66
2023/07/29 03:17:42;;;;;;;;;0.00;0.00;;;;;20.70;89.32;100514.72;5000820;28;45571;-66
2023/07/29 03:20:08;;;;;;;;;2.00;2.00;;;;;20.63;88.46;100511.63;4999472;28;45690;-66
2023/07/29 03:22:33;;;;;;;;;2.25;1.25;;;;;20.79;88.56;100542.97;5000900;28;45688;-66
2023/07/29 03:24:58;;;;;;;;;1.25;1.25;;;;;20.69;88.37;100537.38;4999144;28;45526;-66
2023/07/29 03:27:24;;;;;;;;;2.00;1.00;;;;;20.68;88.64;100536.53;5000747;28;45381;-66
2023/07/29 03:29:49;;;;;;;;;2.25;2.00;;;;;20.61;88.61;100532.50;5012410;28;45369;-66
2023/07/29 03:32:14;;;;;;;;;2.00;1.00;;;;;20.60;88.72;100543.47;4994005;28;45397;-66
2023/07/29 03:34:40;;;;;;;;;3.00;2.25;;;;;20.50;88.38;100527.94;5000543;28;45565;-66
2023/07/29 03:37:06;;;;;;;;;1.00;1.00;;;;;20.62;88.21;100557.81;5000319;28;47070;-66
2023/07/29 03:39:31;;;;;;;;;1.00;1.00;;;;;20.54;88.53;100545.69;4966284;28;45449;-66
2023/07/29 03:41:57;;;;;;;;;2.00;2.00;;;;;20.39;88.38;100521.63;4999372;28;45306;-66
2023/07/29 03:44:22;;;;;;;;;4.00;2.00;;;;;20.42;88.85;100524.94;4982565;28;45300;-66
2023/07/29 03:46:48;;;;;;;;;2.00;2.00;;;;;20.60;88.26;100549.78;4998995;28;48286;-66
2023/07/29 03:49:13;;;;;;;;;1.75;1.75;;;;;20.53;88.36;100548.50;4998885;28;45321;-66
2023/07/29 03:51:38;;;;;;;;;2.00;1.75;;;;;20.43;88.46;100525.81;5000482;28;45415;-66
2023/07/29 03:54:03;;;;;;;;;2.00;2.00;;;;;20.48;88.49;100531.75;4982268;28;45662;-66
2023/07/29 03:56:29;;;;;;;;;2.00;2.00;;;;;20.60;88.09;100554.31;5000334;28;46501;-66
2023/07/29 03:59:03;;;;;;;;;2.50;2.50;;;;;20.44;88.44;100527.56;5000150;28;45479;-66
2023/07/29 04:01:28;;;;;;;;;1.25;1.25;;;;;20.47;88.25;100530.88;5004294;28;45499;-66
2023/07/29 04:03:54;;;;;;;;;1.50;1.50;;;;;20.55;88.04;100550.13;5003630;28;45686;-66
2023/07/29 04:06:20;;;;;;;;;2.50;2.50;;;;;20.53;88.02;100551.22;4982277;28;47647;-66
2023/07/29 04:08:45;;;;;;;;;2.50;2.50;;;;;20.40;87.98;100528.75;4982130;28;45526;-66
2023/07/29 04:11:11;;;;;;;;;2.75;2.75;;;;;20.43;88.51;100542.06;4998850;28;45329;-66
2023/07/29 04:13:37;;;;;;;;;2.50;2.50;;;;;20.43;88.35;100545.66;5000043;28;45417;-66
2023/07/29 04:16:03;;;;;;;;;3.00;3.00;;;;;20.22;88.22;100514.78;4982267;28;47769;-66
2023/07/29 04:18:29;;;;;;;;;4.00;3.25;;;;;20.33;88.15;100534.66;4999796;28;45324;-66
2023/07/29 04:20:54;;;;;;;;;3.00;3.00;;;;;20.12;88.12;100512.78;4998825;28;45345;-66
2023/07/29 04:23:19;;;;;;;;;2.75;2.75;;;;;20.26;88.62;100536.09;4981870;28;45551;-66
2023/07/29 04:25:45;;;;;;;;;2.00;2.00;;;;;20.34;87.82;100551.78;4998047;28;47881;-66
2023/07/29 04:28:10;;;;;;;;;1.50;1.50;;;;;20.29;88.05;100551.28;5001519;28;45323;-66
2023/07/29 04:30:36;;;;;;;;;2.00;2.00;;;;;20.35;88.36;100567.94;5011576;28;45321;-66
2023/07/29 04:33:01;;;;;;;;;1.00;1.00;;;;;20.26;88.67;100565.06;4986959;28;45241;-66
2023/07/29 04:35:26;;;;;;;;;1.00;1.00;;;;;20.21;88.01;100549.13;4999568;28;45335;-66
2023/07/29 04:37:51;;;;;;;;;1.75;1.75;;;;;20.31;88.07;100576.41;4999694;28;45612;-66
2023/07/29 04:40:17;;;;;;;;;4.75;2.00;;;;;20.33;88.38;100569.91;4999682;28;45425;-66
2023/07/29 04:42:42;;;;;;;;;1.50;1.50;;;;;20.20;88.26;100549.25;4999562;28;45493;-66
2023/07/29 04:45:08;;;;;;;;;2.25;2.00;;;;;20.21;88.49;100545.56;4999219;28;45496;-66
2023/07/29 04:47:33;;;;;;;;;1.00;1.00;;;;;20.14;88.11;100539.75;4999340;28;45322;-66
2023/07/29 04:49:59;;;;;;;;;3.00;2.00;;;;;20.14;88.43;100528.91;4999838;28;45456;-66
2023/07/29 04:52:24;;;;;;;;;2.00;2.00;;;;;20.15;88.01;100538.78;4999379;28;45472;-66
2023/07/29 04:54:49;;;;;;;;;1.50;1.50;;;;;20.34;87.78;100566.19;4999262;28;46039;-66
2023/07/29 04:57:15;;;;;;;;;2.00;2.00;;;;;20.32;87.93;100565.44;4999320;28;45392;-66
2023/07/29 04:59:40;;;;;;;;;2.00;2.00;;;;;20.24;87.86;100553.47;4982015;28;45444;-66
2023/07/29 05:02:05;;;;;;;;;2.00;2.00;;;;;20.20;88.31;100555.56;5007558;28;45398;-66
2023/07/29 05:04:31;;;;;;;;;3.25;2.25;;;;;20.17;87.86;100548.50;5005748;28;45573;-66
2023/07/29 05:06:56;;;;;;;;;3.25;2.00;;;;;19.99;88.00;100525.53;5001123;28;45432;-66
2023/07/29 05:09:22;;;;;;;;;1.25;1.25;;;;;20.21;88.20;100561.84;5019105;28;45857;-66
2023/07/29 05:11:48;;;;;;;;;1.50;1.50;;;;;20.24;88.12;100575.16;5018967;28;45449;-66
2023/07/29 05:14:15;;;;;;;;;2.00;2.00;;;;;20.16;88.16;100568.47;5018805;28;47571;-66
2023/07/29 05:16:41;;;;;;;;;2.00;2.00;;;;;20.20;87.92;100579.94;4987818;28;45504;-66
2023/07/29 05:19:06;;;;;;;;;2.75;1.00;;;;;20.23;87.92;100579.72;4981545;28;45580;-66
2023/07/29 05:21:32;;;;;;;;;2.00;2.00;;;;;20.04;88.72;100541.44;4999050;28;45570;-66
2023/07/29 05:23:57;;;;;;;;;3.00;2.00;;;;;20.22;88.49;100577.13;4997579;28;48356;-66
2023/07/29 05:26:23;;;;;;;;;2.25;2.00;;;;;20.18;88.77;100573.78;4999004;28;45409;-66
2023/07/29 05:28:48;;;;;;;;;1.00;1.00;;;;;20.21;88.71;100584.38;5006107;28;45440;-66
2023/07/29 05:31:14;;;;;;;;;0.75;0.75;;;;;20.09;87.83;100560.91;5005302;28;45526;-66
2023/07/29 05:33:39;;;;;;;;;2.00;2.00;;;;;20.16;88.04;100578.44;4998416;28;55742;-66
2023/07/29 05:36:05;;;;;;;;;2.00;1.00;;;;;20.15;89.07;100583.00;4998854;28;45324;-66
2023/07/29 05:38:30;;;;;;;;;1.75;1.75;;;;;20.15;88.42;100574.00;4987666;28;45644;-66
2023/07/29 05:40:56;;;;;;;;;2.00;2.00;;;;;20.14;88.52;100577.69;5018631;28;45448;-66
2023/07/29 05:43:21;;;;;;;;;1.00;1.00;;;;;20.17;88.95;100588.31;5018347;28;45385;-66
2023/07/29 05:45:47;;;;;;;;;1.50;1.50;;;;;20.11;88.76;100578.81;5018385;28;45420;-66
2023/07/29 05:48:12;;;;;;;;;1.00;1.00;;;;;20.08;88.19;100568.19;5018704;28;45521;-66
2023/07/29 05:50:37;;;;;;;;;1.00;1.00;;;;;20.23;88.67;100590.56;5018517;28;45529;-66
2023/07/29 05:53:03;;;;;;;;;1.00;1.00;;;;;20.24;88.48;100589.56;5000672;28;47368;-66
2023/07/29 05:55:29;;;;;;;;;2.00;0.75;;;;;20.06;88.33;100558.44;5018253;28;45324;-66
2023/07/29 05:57:54;;;;;;;;;0.75;0.75;;;;;20.20;88.51;100584.47;5018633;28;45318;-66
2023/07/29 06:00:20;;;;;;;;;2.50;1.25;;;;;20.03;88.90;100556.84;5018481;28;45329;-66
2023/07/29 06:02:45;;;;;;;;;0.75;0.75;;;;;20.16;88.64;100567.59;4993325;28;47008;-66
2023/07/29 06:05:11;;;;;;;;;2.50;1.00;;;;;20.14;88.72;100565.00;4980777;28;45346;-66
2023/07/29 06:07:36;;;;;;;;;0.50;0.50;;;;;20.10;88.38;100554.53;5018434;28;45306;-66
2023/07/29 06:10:01;;;;;;;;;0.50;0.50;;;;;20.16;88.94;100562.19;5000367;28;45578;-66
2023/07/29 06:12:27;;;;;;;;;1.00;1.00;;;;;20.23;89.12;100576.13;5018230;28;45431;-66
2023/07/29 06:14:52;;;;;;;;;1.00;1.00;;;;;20.11;88.62;100556.25;5003055;28;45340;-65
2023/07/29 06:17:17;;;;;;;;;0.50;0.50;;;;;20.10;88.55;100557.25;5003976;28;45431;-66
2023/07/29 06:19:43;;;;;;;;;0.25;0.25;;;;;20.11;88.52;100562.53;5021703;28;45280;-66
2023/07/29 06:22:09;;;;;;;;;0.00;0.00;;;;;20.12;87.97;100571.53;5021528;28;45642;-66
2023/07/29 06:24:35;;;;;;;;;1.00;1.00;;;;;20.15;87.78;100593.84;5003526;28;45728;-66
2023/07/29 06:27:00;;;;;;;;;1.00;1.00;;;;;20.17;88.07;100588.31;5021655;28;45429;-66
2023/07/29 06:29:25;;;;;;;;;0.00;0.00;;;;;20.17;88.91;100597.28;5021583;28;45643;-66
2023/07/29 06:31:51;;;;;;;;;1.00;1.00;;;;;20.25;88.19;100601.28;5019790;28;48074;-66
2023/07/29 06:34:17;;;;;;;;;0.50;0.50;;;;;20.28;88.04;100607.34;5003574;28;45388;-66
2023/07/29 06:36:43;;;;;;;;;0.00;0.00;;;;;20.16;87.80;100587.44;4993604;28;45630;-66
2023/07/29 06:39:08;;;;;;;;;0.50;0.50;;;;;20.20;88.01;100589.91;5009421;28;45294;-66
2023/07/29 06:41:33;;;;;;;;;0.00;0.00;;;;;20.33;87.54;100612.38;4983474;28;46891;-66
2023/07/29 06:43:58;;;;;;;;;1.00;1.00;;;;;20.20;88.07;100598.91;5001391;28;45413;-66
2023/07/29 06:46:24;;;;;;;;;0.00;0.00;;;;;20.22;87.56;100596.94;5001303;28;45500;-66
2023/07/29 06:48:50;;;;;;;;;0.00;0.00;;;;;20.14;87.58;100581.25;4982910;28;45566;-66
2023/07/29 06:51:15;;;;;;;;;1.00;1.00;;;;;20.39;87.30;100624.63;5001055;28;45384;-66
2023/07/29 06:53:40;;;;;;;;;0.00;0.00;;;;;20.20;87.27;100593.50;5001183;28;45380;-66
2023/07/29 06:56:06;;;;;;;;;0.00;0.00;;;;;20.12;87.29;100591.34;5001327;28;45309;-66
2023/07/29 06:58:31;;;;;;;;;0.00;0.00;;;;;20.28;87.25;100611.88;5001322;28;45452;-66
2023/07/29 07:00:56;;;;;;;;;0.00;0.00;;;;;20.15;86.52;100587.56;5001037;28;46696;-65
2023/07/29 07:03:22;;;;;;;;;0.00;0.00;;;;;20.21;87.05;100597.91;5009183;28;45459;-66
2023/07/29 07:05:47;;;;;;;;;0.00;0.00;;;;;20.24;87.54;100613.97;4983427;28;45326;-66
2023/07/29 07:08:12;;;;;;;;;0.00;0.00;;;;;20.29;87.48;100616.31;4999674;28;45794;-65
2023/07/29 07:10:38;;;;;;;;;0.00;0.00;;;;;20.31;86.95;100614.34;4983161;28;47408;-66
2023/07/29 07:13:03;;;;;;;;;0.00;0.00;;;;;20.22;87.36;100615.06;5001100;28;45282;-66
2023/07/29 07:15:29;;;;;;;;;0.00;0.00;;;;;20.36;86.60;100639.28;5001000;28;45481;-66
2023/07/29 07:17:54;;;;;;;;;0.00;0.00;;;;;20.40;86.88;100643.50;5000881;28;45398;-68
2023/07/29 07:20:19;;;;;;;;;0.00;0.00;;;;;20.23;87.19;100617.66;5000838;28;46015;-68
2023/07/29 07:22:45;;;;;;;;;0.00;0.00;;;;;20.26;86.74;100616.56;4983056;28;45370;-68
2023/07/29 07:25:10;;;;;;;;;0.50;0.25;;;;;20.25;86.80;100636.53;5000239;28;45438;-68
2023/07/29 07:27:36;;;;;;;;;0.00;0.00;;;;;20.27;86.87;100631.84;5000947;28;45537;-68
2023/07/29 07:30:02;;;;;;;;;0.00;0.00;;;;;20.42;86.67;100649.66;5013941;28;46131;-68
2023/07/29 07:32:28;;;;;;;;;0.00;0.00;;;;;20.30;86.91;100624.34;4992685;28;45535;-68
2023/07/29 07:34:53;;;;;;;;;0.00;0.00;;;;;20.31;87.31;100627.91;5000606;28;45466;-68
2023/07/29 07:37:18;;;;;;;;;0.00;0.00;;;;;20.43;86.75;100643.28;5000872;28;45473;-68
2023/07/29 07:39:44;;;;;;;;;0.00;0.00;;;;;20.46;87.59;100648.44;4982509;28;48175;-67
2023/07/29 07:42:09;;;;;;;;;0.00;0.00;;;;;20.49;86.79;100650.06;4999295;28;45359;-68
2023/07/29 07:44:34;;;;;;;;;0.25;0.25;;;;;20.52;86.57;100664.25;5000415;28;45821;-68
2023/07/29 07:47:00;;;;;;;;;0.50;0.25;;;;;20.44;86.98;100652.25;5000295;28;45343;-68
2023/07/29 07:49:25;;;;;;;;;0.00;0.00;;;;;20.40;86.42;100634.47;5000315;28;45416;-68
2023/07/29 07:51:50;;;;;;;;;0.00;0.00;;;;;20.42;86.20;100635.25;4982731;28;45302;-68
2023/07/29 07:54:16;;;;;;;;;0.50;0.50;;;;;20.46;85.97;100642.16;5000179;28;45345;-68
2023/07/29 07:56:42;;;;;;;;;0.00;0.00;;;;;20.32;85.80;100614.25;4982712;28;45329;-68
2023/07/29 07:59:08;;;;;;;;;0.25;0.25;;;;;20.43;86.22;100634.25;5000153;28;46360;-68
2023/07/29 08:01:40;;;;;;;;;0.00;0.00;;;;;20.67;86.02;100670.38;5004876;28;45495;-68
2023/07/29 08:04:05;;;;;;;;;3.00;0.25;;;;;20.54;86.19;100643.28;4984599;28;45450;-68
2023/07/29 08:06:32;;;;;;;;;2.00;0.00;;;;;20.76;85.72;100667.97;5011101;28;45343;-66
2023/07/29 08:08:57;;;;;;;;;0.75;0.75;;;;;20.58;85.75;100624.97;5001629;28;47987;-66
2023/07/29 08:11:23;;;;;;;;;0.25;0.25;;;;;20.77;85.86;100650.72;5001977;28;45266;-66
2023/07/29 08:13:48;;;;;;;;;0.00;0.00;;;;;20.81;85.87;100652.19;5019908;28;45326;-66
2023/07/29 08:16:14;;;;;;;;;1.00;0.25;;;;;20.72;85.35;100638.34;5001942;28;45661;-66
2023/07/29 08:18:39;;;;;;;;;1.00;1.00;;;;;20.82;85.56;100645.81;5019487;28;46119;-66
2023/07/29 08:21:05;;;;;;;;;0.75;0.00;;;;;20.80;85.50;100631.47;5019869;28;45483;-66
2023/07/29 08:23:32;;;;;;;;;0.75;0.75;;;;;20.83;86.20;100634.84;5019491;28;45446;-66
2023/07/29 08:26:01;;;;;;;;;0.00;0.00;;;;;21.02;85.78;100655.97;5001864;28;46015;-66
2023/07/29 08:28:32;;;;;;;;;0.50;0.50;;;;;20.97;85.41;100632.91;5019361;28;45468;-66
2023/07/29 08:30:57;;;;;;;;;0.00;0.00;;;;;;;;5014930;28;45986;-66
2023/07/29 08:33:23;;;;;;;;;0.00;0.00;;;;;21.22;85.01;100669.84;4999964;28;45588;-66
2023/07/29 08:35:49;;;;;;;;;1.00;1.00;;;;;21.25;84.97;100672.28;4998963;28;45360;-66
2023/07/29 08:38:14;;;;;;;;;0.75;0.75;;;;;21.08;85.17;100636.50;4997781;28;47473;-66
2023/07/29 08:40:51;;;;;;;;;0.50;0.00;;;;;21.27;84.18;100673.06;4982088;28;45468;-66
2023/07/29 08:43:19;;;;;;;;;1.00;1.00;;;;;21.19;84.27;100637.50;4981840;28;45539;-67
2023/07/29 08:45:46;;;;;;;;;1.00;1.00;;;;;21.23;83.92;100645.28;4999417;28;45616;-66
2023/07/29 08:48:15;;;;;;;;;1.00;1.00;;;;;21.21;84.38;100635.53;4999662;28;46285;-66
2023/07/29 08:50:41;;;;;;;;;1.75;1.75;;;;;21.32;84.43;100643.69;4999356;28;45326;-66
2023/07/29 08:53:07;;;;;;;;;1.00;1.00;;;;;21.20;83.37;100615.66;4999439;28;45287;-66
2023/07/29 08:55:33;;;;;;;;;1.00;1.00;;;;;21.46;83.97;100657.00;4999427;28;45537;-66
2023/07/29 08:58:00;;;;;;;;;3.00;2.00;;;;;21.35;83.28;100635.31;4999537;28;46296;-66
2023/07/29 09:00:26;;;;;;;;;0.75;0.75;;;;;21.36;83.97;100631.59;4981599;28;45508;-66
2023/07/29 09:02:52;;;;;;;;;2.00;2.00;;;;;21.50;83.97;100644.13;4996727;28;45347;-66
2023/07/29 09:05:18;;;;;;;;;1.00;1.00;;;;;21.46;83.07;100635.28;5019039;28;45589;-66
2023/07/29 09:07:45;;;;;;;;;1.00;1.00;;;;;21.54;83.53;100642.00;4994225;28;47175;-66
2023/07/29 09:10:13;;;;;;;;;2.00;2.00;;;;;21.52;82.92;100623.13;4981989;28;45364;-66
2023/07/29 09:12:39;;;;;;;;;1.00;1.00;;;;;21.62;82.91;100632.25;5019335;28;45484;-66
2023/07/29 09:15:05;;;;;;;;;0.25;0.00;;;;;21.68;83.52;100644.47;5018916;28;45463;-66
2023/07/29 09:17:34;;;;;;;;;2.75;1.00;;;;;21.57;83.22;100609.19;5019007;28;46696;-66
2023/07/29 09:20:00;;;;;;;;;0.00;0.00;;;;;21.70;82.28;100634.38;5018856;28;45341;-66
2023/07/29 09:22:27;;;;;;;;;0.00;0.00;;;;;21.79;82.30;100640.91;5019168;28;45251;-66
2023/07/29 09:24:53;;;;;;;;;0.50;0.50;;;;;21.73;81.76;100625.09;5000724;28;46142;-66
2023/07/29 09:27:31;;;;;;;;;1.00;1.00;;;;;21.76;82.15;100619.41;5019011;28;46234;-66
2023/07/29 09:29:57;;;;;;;;;3.50;0.50;;;;;21.83;82.58;100634.22;5015553;28;45368;-66
2023/07/29 09:32:24;;;;;;;;;2.00;1.00;;;;;21.83;82.42;100620.63;4991287;28;45448;-66
2023/07/29 09:34:50;;;;;;;;;0.50;0.00;;;;;21.98;80.85;100638.38;4999037;28;45577;-66
2023/07/29 09:37:22;;;;;;;;;1.50;1.00;;;;;21.76;81.09;100590.38;5008763;28;45319;-66
2023/07/29 09:39:49;;;;;;;;;0.00;0.00;;;;;21.90;80.65;100601.97;4998761;28;45742;-66
2023/07/29 09:42:22;;;;;;;;;0.75;0.75;;;;;21.87;81.03;100597.66;4997721;28;45363;-66
2023/07/29 09:44:51;;;;;;;;;0.50;0.50;;;;;21.95;80.32;100602.44;4997334;28;45589;-66
2023/07/29 09:47:34;;;;;;;;;2.00;1.00;;;;;22.13;80.57;100632.69;4998871;28;46204;-66
2023/07/29 09:49:59;;;;;;;;;1.00;1.00;;;;;22.12;80.46;100620.06;5002287;28;45337;-66
2023/07/29 09:52:25;;;;;;;;;1.00;1.00;;;;;22.00;79.96;100605.63;5002300;28;45426;-66
2023/07/29 09:54:50;;;;;;;;;1.00;1.00;;;;;22.09;80.56;100606.75;5002072;28;45567;-66
2023/07/29 09:57:18;;;;;;;;;2.00;1.00;;;;;22.10;80.34;100612.06;5002008;28;46483;-66
2023/07/29 09:59:53;;;;;;;;;1.50;1.50;;;;;22.14;80.73;100601.81;5002222;28;45490;-66
2023/07/29 10:02:20;;;;;;;;;1.00;1.00;;;;;22.18;80.05;100603.25;5008779;28;45547;-66
2023/07/29 10:04:48;;;;;;;;;2.25;2.25;;;;;22.11;79.99;100592.03;5002017;28;45376;-66
2023/07/29 10:07:15;;;;;;;;;2.00;2.00;;;;;22.26;80.03;100614.34;5001968;28;45654;-66
2023/07/29 10:09:43;;;;;;;;;2.00;1.00;;;;;22.34;79.17;100627.34;4990435;28;45505;-66
2023/07/29 10:12:09;;;;;;;;;1.00;1.00;;;;;22.28;79.50;100609.69;5002025;28;45822;-66
2023/07/29 10:14:38;;;;;;;;;1.00;1.00;;;;;22.39;79.21;100628.69;5001882;28;45305;-66
2023/07/29 10:17:05;;;;;;;;;2.00;2.00;;;;;22.38;79.65;100626.94;4997353;28;45444;-66
2023/07/29 10:19:30;;;;;;;;;1.25;1.25;;;;;22.30;79.16;100617.72;5001860;28;45444;-67
2023/07/29 10:22:01;;;;;;;;;1.00;1.00;;;;;22.16;79.28;100592.50;5001827;28;45356;-66
2023/07/29 10:24:30;;;;;;;;;3.00;2.00;;;;;22.45;78.81;100635.44;4983733;28;45481;-66
2023/07/29 10:27:00;;;;;;;;;1.00;1.00;;;;;22.29;79.47;100605.13;4983768;28;48220;-66
2023/07/29 10:29:32;;;;;;;;;1.00;1.00;;;;;22.28;79.64;100595.19;5013670;28;45608;-66
2023/07/29 10:32:02;;;;;;;;;2.50;2.50;;;;;22.41;79.89;100614.97;5013665;28;45290;-67
2023/07/29 10:34:28;;;;;;;;;2.00;2.00;;;;;22.43;79.77;100612.09;5001507;28;45499;-66
2023/07/29 10:36:54;;;;;;;;;2.00;2.00;;;;;22.50;78.71;100616.91;4983662;28;45797;-66
2023/07/29 10:39:19;;;;;;;;;1.75;1.00;;;;;22.61;78.73;100626.00;5001350;28;45329;-66
2023/07/29 10:42:02;;;;;;;;;3.50;2.25;;;;;22.46;79.25;100606.41;5001498;28;45986;-66
2023/07/29 10:44:39;;;;;;;;;2.50;2.00;;;;;22.66;79.14;100630.06;5001158;28;45375;-66
2023/07/29 10:47:15;;;;;;;;;4.00;2.00;;;;;22.57;78.78;100623.56;5001213;28;45627;-66
2023/07/29 10:49:41;;;;;;;;;3.00;3.00;;;;;22.49;78.82;100601.56;4983657;28;45290;-66
2023/07/29 10:52:07;;;;;;;;;2.25;2.25;;;;;22.54;79.36;100610.22;5001458;28;45413;-66
2023/07/29 10:54:42;;;;;;;;;2.00;2.00;;;;;22.55;79.33;100613.78;5001021;28;45563;-66
2023/07/29 10:57:14;;;;;;;;;2.00;2.00;;;;;22.65;79.40;100627.47;4999419;28;46952;-67
2023/07/29 10:59:40;;;;;;;;;2.00;2.00;;;;;22.63;78.47;100616.72;4999212;28;45294;-66
2023/07/29 11:02:17;;;;;;;;;2.00;2.00;;;;;22.63;78.53;100605.81;5010086;28;45255;-66
2023/07/29 11:04:50;;;;;;;;;1.00;1.00;;;;;22.58;78.88;100602.66;5012808;28;45399;-66
2023/07/29 11:07:16;;;;;;;;;2.00;2.00;;;;;22.69;79.09;100615.34;5000831;28;45377;-66
2023/07/29 11:09:50;;;;;;;;;5.00;3.00;;;;;22.74;78.83;100624.81;4983146;28;45326;-66
2023/07/29 11:12:42;;;;;;;;;1.25;1.25;;;;;22.74;79.25;100630.25;5001072;28;45319;-66
2023/07/29 11:15:10;;;;;;;;;2.00;2.00;;;;;22.78;79.35;100633.59;5001096;28;45419;-66
2023/07/29 11:18:15;;;;;;;;;1.75;1.00;;;;;22.81;79.64;100619.72;5000910;28;45541;-66
2023/07/29 11:20:40;;;;;;;;;1.25;1.25;;;;;22.71;79.54;100600.59;4920802;28;45499;-66
2023/07/29 11:23:05;;;;;;;;;2.00;2.00;;;;;22.83;79.62;100603.25;4985354;28;45480;-66
2023/07/29 11:25:33;;;;;;;;;1.25;1.25;;;;;22.80;78.86;100603.53;4997785;28;45337;-66